createdAt,value
2022-08-05T00:02:22.484Z,87754.22
2022-08-05T00:04:55.764Z,87756.69
2022-08-05T00:07:58.930Z,87749.19
2022-08-05T00:10:11.841Z,87745.88
2022-08-05T00:12:55.619Z,87751.03
2022-08-05T00:15:56.050Z,87749.25
2022-08-05T00:18:21.672Z,87755.16
2022-08-05T00:20:51.427Z,87754.41
2022-08-05T00:23:44.468Z,87753.31
2022-08-05T00:26:07.903Z,87750.47
2022-08-05T00:28:37.518Z,87750.88
2022-08-05T00:31:07.822Z,87751.75
2022-08-05T00:34:55.706Z,87751.88
2022-08-05T00:37:11.270Z,87743.63
2022-08-05T00:39:14.020Z,87746.53
2022-08-05T00:41:54.876Z,87737.84
2022-08-05T00:44:30.438Z,87740.63
2022-08-05T00:47:03.783Z,87736.56
2022-08-05T00:49:32.435Z,87735.63
2022-08-05T00:52:00.655Z,87730.34
2022-08-05T00:54:28.151Z,87733.16
2022-08-05T00:56:57.474Z,87734.78
2022-08-05T00:59:24.676Z,87729.53
2022-08-05T01:01:52.009Z,87728.16
2022-08-05T01:04:20.350Z,87732.50
2022-08-05T01:06:54.998Z,87722.31
2022-08-05T01:09:22.889Z,87726.97
2022-08-05T01:11:53.540Z,87717.50
2022-08-05T01:15:35.077Z,87716.53
2022-08-05T01:18:09.863Z,87724.28
2022-08-05T01:20:57.067Z,87722.56
2022-08-05T01:24:01.708Z,87720.97
2022-08-05T01:27:17.741Z,87719.91
2022-08-05T01:29:54.711Z,87723.13
2022-08-05T01:32:27.996Z,87726.66
2022-08-05T01:35:02.138Z,87720.97
2022-08-05T01:37:45.131Z,87714.63
2022-08-05T01:40:17.839Z,87721.94
2022-08-05T01:42:49.197Z,87716.69
2022-08-05T01:45:19.579Z,87715.28
2022-08-05T01:47:50.545Z,87722.69
2022-08-05T01:50:29.679Z,87714.75
2022-08-05T01:53:02.753Z,87713.34
2022-08-05T01:55:36.333Z,87710.72
2022-08-05T01:58:15.482Z,87711.69
2022-08-05T02:00:50.434Z,87715.66
2022-08-05T02:03:46.769Z,87711.03
2022-08-05T02:06:37.523Z,87712.22
2022-08-05T02:09:03.263Z,87721.88
2022-08-05T02:11:47.882Z,87719.94
2022-08-05T02:14:34.508Z,87708.25
2022-08-05T02:18:33.134Z,87717.88
2022-08-05T02:20:52.569Z,87718.31
2022-08-05T02:23:26.642Z,87716.06
2022-08-05T02:25:57.316Z,87707.28
2022-08-05T02:28:36.432Z,87710.38
2022-08-05T02:31:21.242Z,87711.25
2022-08-05T02:34:02.005Z,87711.31
2022-08-05T02:36:35.447Z,87709.06
2022-08-05T02:39:08.778Z,87718.28
2022-08-05T02:41:57.948Z,87717.97
2022-08-05T02:44:28.970Z,87708.09
2022-08-05T02:47:00.346Z,87710.03
2022-08-05T02:49:40.870Z,87721.72
2022-08-05T02:52:29.978Z,87708.81
2022-08-05T02:55:05.223Z,87712.66
2022-08-05T02:58:11.265Z,87714.25
2022-08-05T03:00:22.833Z,87714.56
2022-08-05T03:02:54.836Z,87709.53
2022-08-05T03:06:57.014Z,87713.81
2022-08-05T03:08:12.178Z,87712.41
2022-08-05T03:11:47.620Z,87710.91
2022-08-05T03:13:51.928Z,87703.72
2022-08-05T03:16:21.080Z,87698.75
2022-08-05T03:18:48.832Z,87711.06
2022-08-05T03:21:16.237Z,87703.09
2022-08-05T03:23:45.736Z,87700.53
2022-08-05T03:26:31.781Z,87704.81
2022-08-05T03:29:00.405Z,87706.50
2022-08-05T03:31:55.922Z,87708.84
2022-08-05T03:34:17.387Z,87708.09
2022-08-05T03:36:45.987Z,87716.13
2022-08-05T03:39:20.377Z,87710.84
2022-08-05T03:41:56.313Z,87706.34
2022-08-05T03:44:25.229Z,87709.38
2022-08-05T03:46:56.379Z,87715.22
2022-08-05T03:49:24.273Z,87712.31
2022-08-05T03:52:48.404Z,87708.13
2022-08-05T03:56:01.098Z,87710.91
2022-08-05T03:57:57.368Z,87706.78
2022-08-05T04:00:27.344Z,87713.34
2022-08-05T04:03:02.876Z,87715.69
2022-08-05T04:05:35.216Z,87713.84
2022-08-05T04:08:05.837Z,87703.97
2022-08-05T04:10:52.711Z,87711.34
2022-08-05T04:13:20.102Z,87714.78
2022-08-05T04:15:52.882Z,87715.94
2022-08-05T04:18:31.175Z,87717.13
2022-08-05T04:20:59.139Z,87708.75
2022-08-05T04:24:05.618Z,87707.66
2022-08-05T04:26:21.047Z,87707.41
2022-08-05T04:28:57.368Z,87711.34
2022-08-05T04:31:33.967Z,87710.78
2022-08-05T04:34:18.414Z,87710.34
2022-08-05T04:36:53.408Z,87717.63
2022-08-05T04:39:21.213Z,87718.81
2022-08-05T04:41:51.168Z,87707.34
2022-08-05T04:44:21.375Z,87713.34
2022-08-05T04:47:08.982Z,87709.53
2022-08-05T04:50:01.861Z,87707.56
2022-08-05T04:52:27.307Z,87708.31
2022-08-05T04:54:56.951Z,87709.84
2022-08-05T04:57:28.948Z,87710.94
2022-08-05T04:59:58.544Z,87712.34
2022-08-05T05:02:36.105Z,87703.78
2022-08-05T05:05:16.976Z,87708.75
2022-08-05T05:08:03.445Z,87707.56
2022-08-05T05:10:47.314Z,87707.47
2022-08-05T05:13:23.642Z,87702.13
2022-08-05T05:15:57.004Z,87703.94
2022-08-05T05:18:28.694Z,87700.44
2022-08-05T05:21:00.503Z,87708.03
2022-08-05T05:23:27.736Z,87704.94
2022-08-05T05:26:15.292Z,87695.00
2022-08-05T05:28:45.135Z,87694.88
2022-08-05T05:31:13.213Z,87696.81
2022-08-05T05:33:57.038Z,87702.59
2022-08-05T05:36:28.330Z,87693.28
2022-08-05T05:38:56.288Z,87693.94
2022-08-05T05:41:24.506Z,87693.50
2022-08-05T05:43:58.311Z,87699.63
2022-08-05T05:46:27.421Z,87685.84
2022-08-05T05:48:54.652Z,87690.25
2022-08-05T05:51:27.999Z,87683.19
2022-08-05T05:53:58.811Z,87687.94
2022-08-05T05:56:34.476Z,87686.16
2022-08-05T05:59:05.801Z,87684.44
2022-08-05T06:01:38.959Z,87686.19
2022-08-05T06:04:12.960Z,87686.66
2022-08-05T06:06:47.377Z,87682.91
2022-08-05T06:09:27.475Z,87678.84
2022-08-05T06:12:05.613Z,87683.13
2022-08-05T06:14:36.964Z,87672.19
2022-08-05T06:17:22.202Z,87671.56
2022-08-05T06:19:56.588Z,87668.28
2022-08-05T06:22:33.798Z,87675.22
2022-08-05T06:25:24.452Z,87675.34
2022-08-05T06:28:10.871Z,87677.34
2022-08-05T06:30:39.887Z,87677.03
2022-08-05T06:33:09.970Z,87666.06
2022-08-05T06:36:09.286Z,87676.00
2022-08-05T06:38:36.282Z,87682.22
2022-08-05T06:41:07.970Z,87669.34
2022-08-05T06:43:51.473Z,87674.50
2022-08-05T06:46:29.771Z,87665.75
2022-08-05T06:49:01.057Z,87664.75
2022-08-05T06:51:31.318Z,87669.03
2022-08-05T06:54:01.972Z,87668.03
2022-08-05T06:56:34.555Z,87665.81
2022-08-05T06:59:08.503Z,87672.88
2022-08-05T07:01:40.692Z,87665.34
2022-08-05T07:04:09.737Z,87664.03
2022-08-05T07:06:37.727Z,87665.72
2022-08-05T07:09:05.294Z,87662.03
2022-08-05T07:11:37.340Z,87662.97
2022-08-05T07:14:07.356Z,87660.47
2022-08-05T07:18:01.239Z,87657.19
2022-08-05T07:22:17.624Z,87644.09
2022-08-05T07:24:53.541Z,87640.69
2022-08-05T07:27:21.576Z,87637.00
2022-08-05T07:30:27.578Z,87642.25
2022-08-05T07:32:38.294Z,87634.66
2022-08-05T07:36:03.736Z,87642.50
2022-08-05T07:38:01.343Z,87639.19
2022-08-05T07:40:33.116Z,87641.00
2022-08-05T07:43:04.698Z,87644.00
2022-08-05T07:45:57.135Z,87635.19
2022-08-05T07:49:00.348Z,87644.19
2022-08-05T07:51:23.002Z,87640.47
2022-08-05T07:53:51.827Z,87629.13
2022-08-05T07:57:02.526Z,87638.69
2022-08-05T07:59:08.610Z,87631.19
2022-08-05T08:01:41.670Z,87631.06
2022-08-05T08:04:34.342Z,87628.22
2022-08-05T08:07:07.379Z,87636.03
2022-08-05T08:09:35.360Z,87624.66
2022-08-05T08:12:12.502Z,87624.06
2022-08-05T08:14:46.755Z,87630.06
2022-08-05T08:17:15.822Z,87617.78
2022-08-05T08:20:22.114Z,87627.69
2022-08-05T08:22:33.490Z,87621.25
2022-08-05T08:25:03.120Z,87619.91
2022-08-05T08:27:40.107Z,87615.72
2022-08-05T08:30:29.433Z,87615.84
2022-08-05T08:33:08.239Z,87610.91
2022-08-05T08:35:41.009Z,87612.25
2022-08-05T08:38:11.735Z,87608.47
2022-08-05T08:40:50.519Z,87615.06
2022-08-05T08:45:16.808Z,87606.34
2022-08-05T08:46:10.002Z,87600.38
2022-08-05T08:49:08.047Z,87602.78
2022-08-05T08:52:03.968Z,87599.75
2022-08-05T08:54:28.308Z,87593.75
2022-08-05T08:56:56.472Z,87595.66
2022-08-05T08:59:27.546Z,87596.25
2022-08-05T09:02:08.408Z,87594.13
2022-08-05T09:04:37.655Z,87587.81
2022-08-05T09:07:29.139Z,87586.13
2022-08-05T09:10:07.551Z,87591.50
2022-08-05T09:12:35.774Z,87585.50
2022-08-05T09:15:06.624Z,87582.75
2022-08-05T09:17:40.558Z,87582.56
2022-08-05T09:20:21.029Z,87582.06
2022-08-05T09:23:07.823Z,87576.91
2022-08-05T09:26:02.518Z,87572.81
2022-08-05T09:28:32.192Z,87572.44
2022-08-05T09:31:43.846Z,87565.03
2022-08-05T09:33:56.845Z,87568.44
2022-08-05T09:36:27.700Z,87563.16
2022-08-05T09:39:18.367Z,87565.78
2022-08-05T09:41:59.271Z,87566.75
2022-08-05T09:44:45.451Z,87562.66
2022-08-05T09:47:28.613Z,87552.03
2022-08-05T09:50:04.456Z,87552.13
2022-08-05T09:52:36.670Z,87548.88
2022-08-05T09:55:56.621Z,87549.00
2022-08-05T09:58:09.636Z,87550.41
2022-08-05T10:00:39.075Z,87542.34
2022-08-05T10:03:11.669Z,87532.19
2022-08-05T10:05:39.918Z,87531.53
2022-08-05T10:08:34.603Z,87525.72
2022-08-05T10:10:54.990Z,87524.88
2022-08-05T10:13:45.754Z,87524.22
2022-08-05T10:16:41.963Z,87517.38
2022-08-05T10:19:23.473Z,87521.69
2022-08-05T10:21:59.764Z,87520.34
2022-08-05T10:24:28.619Z,87523.88
2022-08-05T10:26:56.034Z,87519.81
2022-08-05T10:30:07.105Z,87519.25
2022-08-05T10:32:53.917Z,87518.84
2022-08-05T10:35:04.162Z,87515.53
2022-08-05T10:37:37.488Z,87514.59
2022-08-05T10:40:28.112Z,87515.81
2022-08-05T10:43:08.024Z,87515.06
2022-08-05T10:45:42.319Z,87519.28
2022-08-05T10:48:56.886Z,87520.13
2022-08-05T10:51:28.740Z,87517.13
2022-08-05T10:54:23.061Z,87512.41
2022-08-05T10:56:54.558Z,87517.47
2022-08-05T11:00:02.793Z,87511.69
2022-08-05T11:02:38.451Z,87501.25
2022-08-05T11:05:10.679Z,87509.31
2022-08-05T11:08:12.733Z,87504.06
2022-08-05T11:10:50.376Z,87514.84
2022-08-05T11:13:54.890Z,87509.34
2022-08-05T11:20:46.703Z,87513.56
2022-08-05T11:24:03.229Z,87511.06
2022-08-05T11:26:28.151Z,87511.59
2022-08-05T11:29:11.450Z,87508.84
2022-08-05T11:31:58.616Z,87514.16
2022-08-05T11:34:51.446Z,87513.81
2022-08-05T11:41:56.086Z,87513.69
2022-08-05T11:44:40.559Z,87526.38
2022-08-05T11:47:11.116Z,87536.25
2022-08-05T11:49:42.944Z,87536.81
2022-08-05T11:52:11.931Z,87542.84
2022-08-05T11:54:41.434Z,87554.03
2022-08-05T11:57:25.287Z,87557.09
2022-08-05T11:59:54.409Z,87551.19
2022-08-05T12:02:32.845Z,87556.00
2022-08-05T12:05:07.513Z,87566.53
2022-08-05T12:08:08.073Z,87575.09
2022-08-05T12:10:43.567Z,87580.41
2022-08-05T12:13:27.822Z,87571.72
2022-08-05T12:16:18.803Z,87567.69
2022-08-05T12:18:49.035Z,87555.09
2022-08-05T12:21:39.028Z,87551.56
2022-08-05T12:24:10.599Z,87548.50
2022-08-05T12:26:44.240Z,87552.16
2022-08-05T12:29:27.055Z,87547.03
2022-08-05T12:31:58.496Z,87549.44
2022-08-05T12:34:37.101Z,87546.19
2022-08-05T12:37:09.363Z,87542.25
2022-08-05T12:39:40.812Z,87536.22
2022-08-05T12:42:16.611Z,87530.63
2022-08-05T12:44:45.641Z,87531.66
2022-08-05T12:47:30.391Z,87545.41
2022-08-05T12:50:03.870Z,87548.78
2022-08-05T12:52:39.209Z,87548.16
2022-08-05T12:55:25.680Z,87547.94
2022-08-05T12:58:50.805Z,87543.03
2022-08-05T13:02:02.521Z,87542.88
2022-08-05T13:03:42.506Z,87541.28
2022-08-05T13:06:17.688Z,87534.00
2022-08-05T13:08:50.695Z,87534.69
2022-08-05T13:11:59.967Z,87531.03
2022-08-05T13:14:25.133Z,87527.47
2022-08-05T13:17:20.456Z,87527.50
2022-08-05T13:20:14.657Z,87522.19
2022-08-05T13:22:52.521Z,87519.88
2022-08-05T13:25:21.952Z,87523.06
2022-08-05T13:27:54.947Z,87524.25
2022-08-05T13:30:34.221Z,87532.84
2022-08-05T13:33:04.385Z,87535.72
2022-08-05T13:35:47.190Z,87538.63
2022-08-05T13:38:30.859Z,87542.09
2022-08-05T13:41:03.624Z,87544.94
2022-08-05T13:43:44.220Z,87538.97
2022-08-05T13:46:15.014Z,87530.38
2022-08-05T13:48:57.550Z,87528.63
2022-08-05T13:51:40.244Z,87531.13
2022-08-05T13:54:12.808Z,87528.69
2022-08-05T13:56:50.722Z,87537.13
2022-08-05T13:59:24.392Z,87538.06
2022-08-05T14:01:57.588Z,87537.19
2022-08-05T14:04:27.748Z,87536.34
2022-08-05T14:06:58.654Z,87531.88
2022-08-05T14:09:42.804Z,87529.44
2022-08-05T14:12:18.042Z,87529.44
2022-08-05T14:14:59.613Z,87533.66
2022-08-05T14:17:28.397Z,87539.34
2022-08-05T14:20:00.933Z,87537.84
2022-08-05T14:22:30.504Z,87536.34
2022-08-05T14:25:06.482Z,87540.25
2022-08-05T14:27:47.536Z,87539.72
2022-08-05T14:30:20.149Z,87529.25
2022-08-05T14:32:49.191Z,87533.19
2022-08-05T14:35:20.689Z,87539.03
2022-08-05T14:37:55.017Z,87549.50
2022-08-05T14:40:24.417Z,87544.25
2022-08-05T14:42:52.702Z,87546.19
2022-08-05T14:45:20.041Z,87547.41
2022-08-05T14:48:02.869Z,87542.50
2022-08-05T14:50:31.882Z,87535.09
2022-08-05T14:53:00.252Z,87524.94
2022-08-05T14:55:39.183Z,87511.50
2022-08-05T14:58:11.680Z,87512.38
2022-08-05T15:00:58.430Z,87493.16
2022-08-05T15:03:33.537Z,87490.47
2022-08-05T15:06:13.004Z,87494.72
2022-08-05T15:08:59.776Z,87498.28
2022-08-05T15:11:52.723Z,87521.97
2022-08-05T15:14:34.871Z,87528.19
2022-08-05T15:17:09.991Z,87529.19
2022-08-05T15:19:56.406Z,87523.25
2022-08-05T15:22:27.062Z,87514.13
2022-08-05T15:24:56.554Z,87512.81
2022-08-05T15:27:25.759Z,87508.13
2022-08-05T15:29:56.751Z,87527.81
2022-08-05T15:32:27.463Z,87540.84
2022-08-05T15:34:57.443Z,87557.75
2022-08-05T15:38:33.631Z,87561.22
2022-08-05T15:40:58.917Z,87560.66
2022-08-05T15:43:12.445Z,87553.44
2022-08-05T15:45:46.140Z,87548.75
2022-08-05T15:48:13.955Z,87547.06
2022-08-05T15:50:47.850Z,87560.38
2022-08-05T15:53:15.395Z,87563.88
2022-08-05T15:56:02.686Z,87563.97
2022-08-05T15:58:36.935Z,87561.19
2022-08-05T16:01:16.232Z,87570.47
2022-08-05T16:03:50.493Z,87577.31
2022-08-05T16:06:20.760Z,87583.84
2022-08-05T16:08:53.467Z,87609.97
2022-08-05T16:11:40.306Z,87627.19
2022-08-05T16:14:09.114Z,87657.34
2022-08-05T16:16:36.733Z,87666.94
2022-08-05T16:19:05.048Z,87665.16
2022-08-05T16:21:58.721Z,87656.00
2022-08-05T16:24:39.738Z,87666.50
2022-08-05T16:27:08.183Z,87667.84
2022-08-05T16:29:37.045Z,87678.44
2022-08-05T16:32:06.618Z,87677.03
2022-08-05T16:34:39.285Z,87675.81
2022-08-05T16:38:02.037Z,87659.00
2022-08-05T16:40:04.944Z,87650.25
2022-08-05T16:42:35.249Z,87660.97
2022-08-05T16:45:05.911Z,87679.97
2022-08-05T16:47:54.881Z,87684.88
2022-08-05T16:50:25.905Z,87691.16
2022-08-05T16:52:56.466Z,87689.47
2022-08-05T16:55:26.160Z,87700.06
2022-08-05T16:58:01.464Z,87726.34
2022-08-05T17:00:34.819Z,87748.13
2022-08-05T17:03:15.253Z,87759.66
2022-08-05T17:05:51.724Z,87757.69
2022-08-05T17:08:33.483Z,87745.56
2022-08-05T17:11:16.486Z,87735.72
2022-08-05T17:13:45.154Z,87732.41
2022-08-05T17:16:33.498Z,87743.53
2022-08-05T17:19:01.976Z,87757.25
2022-08-05T17:21:35.688Z,87780.41
2022-08-05T17:24:19.718Z,87800.44
2022-08-05T17:26:53.948Z,87804.34
2022-08-05T17:29:33.565Z,87810.88
2022-08-05T17:32:11.290Z,87822.59
2022-08-05T17:34:40.177Z,87832.91
2022-08-05T17:37:27.327Z,87845.00
2022-08-05T17:39:57.485Z,87856.16
2022-08-05T17:42:32.006Z,87868.84
2022-08-05T17:45:09.939Z,87881.72
2022-08-05T17:47:52.964Z,87893.84
2022-08-05T17:50:28.299Z,87905.16
2022-08-05T17:52:59.926Z,87902.06
2022-08-05T17:55:37.664Z,87910.31
2022-08-05T17:58:09.834Z,87928.94
2022-08-05T18:00:44.667Z,87932.88
2022-08-05T18:03:48.481Z,87935.63
2022-08-05T18:06:11.100Z,87934.47
2022-08-05T18:08:45.024Z,87924.25
2022-08-05T18:11:24.866Z,87927.53
2022-08-05T18:14:06.714Z,87934.31
2022-08-05T18:16:51.091Z,87930.13
2022-08-05T18:19:22.660Z,87930.22
2022-08-05T18:22:07.556Z,87927.22
2022-08-05T18:24:39.649Z,87929.19
2022-08-05T18:27:18.115Z,87917.41
2022-08-05T18:29:54.145Z,87912.13
2022-08-05T18:32:27.970Z,87904.50
2022-08-05T18:34:56.767Z,87906.44
2022-08-05T18:37:34.164Z,87912.63
2022-08-05T18:41:03.349Z,87916.84
2022-08-05T18:42:59.512Z,87918.84
2022-08-05T18:45:41.691Z,87916.56
2022-08-05T18:48:10.993Z,87913.16
2022-08-05T18:50:42.232Z,87913.41
2022-08-05T18:53:19.131Z,87926.47
2022-08-05T18:55:50.523Z,87926.75
2022-08-05T18:58:17.722Z,87942.06
2022-08-05T19:00:44.982Z,87950.94
2022-08-05T19:03:15.529Z,87946.44
2022-08-05T19:06:12.227Z,87949.44
2022-08-05T19:08:31.258Z,87961.00
2022-08-05T19:11:04.543Z,87966.78
2022-08-05T19:13:35.586Z,87974.72
2022-08-05T19:16:05.131Z,87969.69
2022-08-05T19:18:52.424Z,87986.28
2022-08-05T19:21:19.593Z,87983.19
2022-08-05T19:24:07.483Z,87982.53
2022-08-05T19:26:34.946Z,87989.63
2022-08-05T19:29:11.446Z,87990.41
2022-08-05T19:31:44.809Z,87990.31
2022-08-05T19:34:18.626Z,87986.47
2022-08-05T19:36:47.290Z,87991.47
2022-08-05T19:39:17.276Z,87984.94
2022-08-05T19:42:06.916Z,87987.19
2022-08-05T19:44:31.941Z,87978.81
2022-08-05T19:46:59.951Z,87969.28
2022-08-05T19:49:27.161Z,87971.22
2022-08-05T19:52:08.758Z,87970.03
2022-08-05T19:54:41.917Z,87964.75
2022-08-05T19:57:10.095Z,87965.91
2022-08-05T19:59:55.446Z,87964.41
2022-08-05T20:02:28.456Z,87960.97
2022-08-05T20:04:58.948Z,87963.28
2022-08-05T20:07:46.271Z,87957.59
2022-08-05T20:10:17.496Z,87959.53
2022-08-05T20:12:49.263Z,87950.72
2022-08-05T20:15:48.231Z,87946.94
2022-08-05T20:18:10.652Z,87947.31
2022-08-05T20:20:57.097Z,87932.41
2022-08-05T20:23:39.524Z,87925.19
2022-08-05T20:26:17.293Z,87911.88
2022-08-05T20:28:49.717Z,87916.03
2022-08-05T20:31:21.711Z,87915.72
2022-08-05T20:33:51.207Z,87917.31
2022-08-05T20:36:21.767Z,87920.41
2022-08-05T20:38:54.440Z,87909.78
2022-08-05T20:41:44.358Z,87904.81
2022-08-05T20:44:29.127Z,87903.41
2022-08-05T20:47:05.196Z,87900.00
2022-08-05T20:49:39.755Z,87891.59
2022-08-05T20:52:08.496Z,87884.81
2022-08-05T20:54:59.087Z,87886.75
2022-08-05T20:57:41.803Z,87887.91
2022-08-05T21:00:41.524Z,87889.81
2022-08-05T21:02:58.932Z,87886.91
2022-08-05T21:05:48.363Z,87890.75
2022-08-05T21:08:15.934Z,87889.66
2022-08-05T21:10:48.571Z,87895.09
2022-08-05T21:13:20.253Z,87892.81
2022-08-05T21:15:55.222Z,87893.34
2022-08-05T21:18:23.415Z,87897.16
2022-08-05T21:20:50.717Z,87898.00
2022-08-05T21:23:17.984Z,87901.09
2022-08-05T21:25:45.180Z,87897.06
2022-08-05T21:28:12.380Z,87897.56
2022-08-05T21:30:45.749Z,87906.34
2022-08-05T21:33:22.286Z,87912.09
2022-08-05T21:35:58.606Z,87911.38
2022-08-05T21:38:27.608Z,87905.25
2022-08-05T21:40:54.806Z,87905.66
2022-08-05T21:43:24.808Z,87911.00
2022-08-05T21:45:57.836Z,87902.97
2022-08-05T21:48:28.953Z,87896.56
2022-08-05T21:50:59.255Z,87900.38
2022-08-05T21:53:27.374Z,87901.13
2022-08-05T21:56:04.427Z,87895.03
2022-08-05T21:58:42.018Z,87896.56
2022-08-05T22:01:10.608Z,87902.00
2022-08-05T22:03:52.630Z,87899.25
2022-08-05T22:06:23.085Z,87900.38
2022-08-05T22:09:14.636Z,87901.53
2022-08-05T22:11:46.952Z,87898.84
2022-08-05T22:14:33.428Z,87887.78
2022-08-05T22:17:06.628Z,87890.88
2022-08-05T22:20:03.277Z,87892.41
2022-08-05T22:22:27.351Z,87883.19
2022-08-05T22:24:58.847Z,87882.81
2022-08-05T22:28:09.240Z,87882.41
2022-08-05T22:30:17.173Z,87879.75
2022-08-05T22:32:44.590Z,87888.22
2022-08-05T22:35:13.536Z,87888.97
2022-08-05T22:37:59.103Z,87882.09
2022-08-05T22:40:27.370Z,87875.25
2022-08-05T22:42:58.450Z,87877.16
2022-08-05T22:45:25.974Z,87868.38
2022-08-05T22:47:57.450Z,87868.03
2022-08-05T22:50:27.799Z,87866.94
2022-08-05T22:52:55.688Z,87873.81
2022-08-05T22:55:24.620Z,87869.63
2022-08-05T22:57:54.979Z,87867.38
2022-08-05T23:00:23.779Z,87864.03
2022-08-05T23:02:52.129Z,87862.84
2022-08-05T23:05:22.124Z,87856.72
2022-08-05T23:07:51.713Z,87860.97
2022-08-05T23:10:23.870Z,87849.53
2022-08-05T23:12:54.736Z,87851.47
2022-08-05T23:15:34.848Z,87846.94
2022-08-05T23:18:06.205Z,87844.25
2022-08-05T23:20:39.511Z,87849.59
2022-08-05T23:23:08.422Z,87850.03
2022-08-05T23:25:51.635Z,87849.28
2022-08-05T23:28:28.880Z,87834.47
2022-08-05T23:31:15.942Z,87835.69
2022-08-05T23:34:05.969Z,87839.91
2022-08-05T23:36:40.262Z,87838.38
2022-08-05T23:39:17.471Z,87836.03
2022-08-05T23:41:51.960Z,87831.53
2022-08-05T23:44:22.679Z,87825.41
2022-08-05T23:46:52.650Z,87827.34
2022-08-05T23:49:23.867Z,87822.81
2022-08-05T23:52:00.907Z,87823.56
2022-08-05T23:54:36.542Z,87831.16
2022-08-05T23:57:07.767Z,87829.66
